Time;durP1;ratioP1;P1;durP2;ratioP2;P2;SDS_P1;SDS_P2;PMS_P1;PMS_P2;Temp;Humidity;BMP_temperature;BMP_pressure;BME280_temperature;BME280_humidity;BME280_pressure;Samples;Min_cycle;Max_cycle;Signal;HPM_P1;HPM_P2
2021/07/22 00:00:08;;;;;;;25.42;13.73;;;;;;;28.77;45.39;101525.56;4435379;32;20077;-78
2021/07/22 00:02:34;;;;;;;23.62;13.75;;;;;;;28.96;45.19;101537.94;4433792;32;20098;-75
2021/07/22 00:05:00;;;;;;;23.95;13.85;;;;;;;28.88;45.49;101537.78;4433313;32;20092;-75
2021/07/22 00:07:25;;;;;;;24.40;12.70;;;;;;;28.70;45.96;101543.56;4430531;32;20574;-78
2021/07/22 00:09:51;;;;;;;22.95;12.88;;;;;;;28.79;45.67;101535.28;4431293;32;20038;-77
2021/07/22 00:12:17;;;;;;;28.42;13.50;;;;;;;28.76;45.55;101532.69;4432479;32;20070;-79
2021/07/22 00:14:43;;;;;;;22.42;12.63;;;;;;;28.53;45.57;101529.28;4433972;32;20653;-78
2021/07/22 00:17:09;;;;;;;23.83;12.25;;;;;;;28.73;45.40;101534.56;4430314;32;20121;-79
2021/07/22 00:19:35;;;;;;;24.83;13.70;;;;;;;28.66;45.47;101538.06;4430885;32;20029;-77
2021/07/22 00:22:02;;;;;;;24.87;12.43;;;;;;;28.48;45.94;101538.06;4430010;32;20089;-75
2021/07/22 00:24:28;;;;;;;27.30;14.52;;;;;;;28.57;45.62;101526.09;4432663;32;20089;-77
2021/07/22 00:26:55;;;;;;;26.48;14.60;;;;;;;28.65;45.40;101527.81;4431085;32;20033;-77
2021/07/22 00:29:21;;;;;;;26.35;14.98;;;;;;;28.76;45.18;101527.69;4421815;32;20125;-77
2021/07/22 00:31:47;;;;;;;30.60;13.73;;;;;;;28.65;45.34;101521.22;4421306;32;20022;-79
2021/07/22 00:34:13;;;;;;;26.25;14.95;;;;;;;28.74;44.98;101523.75;4421557;32;20084;-76
2021/07/22 00:36:39;;;;;;;27.67;14.98;;;;;;;28.59;45.27;101526.34;4422814;32;20071;-79
2021/07/22 00:39:05;;;;;;;26.75;15.32;;;;;;;28.61;45.14;101518.66;4422275;32;20077;-76
2021/07/22 00:41:37;;;;;;;26.52;14.38;;;;;;;28.57;45.20;101526.88;4421360;32;20042;-76
2021/07/22 00:44:03;;;;;;;25.20;14.38;;;;;;;28.58;45.08;101525.56;4424566;32;20100;-76
2021/07/22 00:46:31;;;;;;;29.73;15.48;;;;;;;28.63;44.99;101521.78;4424750;32;20044;-78
2021/07/22 00:48:57;;;;;;;31.27;15.23;;;;;;;28.49;45.29;101528.81;4424519;32;20041;-77
2021/07/22 00:51:39;;;;;;;27.45;14.18;;;;;;;28.33;45.63;101521.09;4422747;32;20065;-79
2021/07/22 00:54:06;;;;;;;27.05;13.68;;;;;;;28.44;45.47;101525.97;4423507;32;20437;-77
2021/07/22 00:56:33;;;;;;;28.30;14.55;;;;;;;28.33;45.60;101526.88;4419656;32;20096;-76
2021/07/22 00:58:59;;;;;;;25.37;14.23;;;;;;;28.38;45.61;101528.91;4425253;32;20026;-76
2021/07/22 01:01:25;;;;;;;24.60;13.80;;;;;;;28.37;45.54;101532.34;4423228;32;20108;-78
2021/07/22 01:03:50;;;;;;;27.25;14.50;;;;;;;28.29;45.75;101529.28;4422575;32;20121;-79
2021/07/22 01:06:16;;;;;;;24.50;13.43;;;;;;;28.34;45.56;101516.06;4419977;32;20082;-78
2021/07/22 01:08:41;;;;;;;29.67;15.02;;;;;;;28.21;45.89;101525.44;4422791;32;20118;-77
2021/07/22 01:11:07;;;;;;;31.17;15.23;;;;;;;28.17;45.87;101524.19;4420146;32;20113;-77
2021/07/22 01:13:33;;;;;;;27.25;14.80;;;;;;;28.20;45.86;101528.87;4422982;32;20373;-78
2021/07/22 01:15:58;;;;;;;30.70;15.25;;;;;;;27.97;46.34;101531.22;4418177;32;20034;-78
2021/07/22 01:18:24;;;;;;;29.52;14.52;;;;;;;28.01;46.24;101523.00;4420319;32;20413;-78
2021/07/22 01:20:51;;;;;;;26.50;13.77;;;;;;;27.97;46.31;101521.75;4420859;32;20030;-75
2021/07/22 01:23:17;;;;;;;28.38;13.70;;;;;;;28.11;45.94;101523.44;4420496;32;20148;-79
2021/07/22 01:25:42;;;;;;;27.25;14.38;;;;;;;28.11;45.87;101521.34;4424881;32;20474;-78
2021/07/22 01:28:09;;;;;;;25.27;13.93;;;;;;;28.11;46.04;101517.66;4422779;32;20108;-78
2021/07/22 01:30:34;;;;;;;26.05;14.45;;;;;;;27.94;46.30;101523.62;4426298;32;20090;-75
2021/07/22 01:33:00;;;;;;;28.17;13.27;;;;;;;27.96;46.35;101520.19;4423820;32;20068;-78
2021/07/22 01:35:26;;;;;;;23.73;14.20;;;;;;;27.86;46.58;101522.66;4420958;32;20034;-76
2021/07/22 01:37:51;;;;;;;26.77;14.23;;;;;;;27.89;46.39;101515.78;4422499;32;20029;-76
2021/07/22 01:40:18;;;;;;;31.52;15.20;;;;;;;27.81;46.70;101516.88;4417890;32;20057;-79
2021/07/22 01:42:45;;;;;;;28.80;14.48;;;;;;;27.79;46.88;101516.66;4421074;32;20050;-76
2021/07/22 01:45:11;;;;;;;25.55;13.93;;;;;;;27.55;47.35;101510.81;4421853;32;20324;-77
2021/07/22 01:47:37;;;;;;;30.35;14.30;;;;;;;27.56;47.30;101515.28;4421408;32;20021;-75
2021/07/22 01:50:03;;;;;;;26.95;13.35;;;;;;;27.56;47.29;101510.28;4424624;32;20149;-78
2021/07/22 01:52:29;;;;;;;28.25;15.43;;;;;;;27.57;47.22;101511.03;4421379;32;20044;-78
2021/07/22 01:54:55;;;;;;;25.75;13.27;;;;;;;27.51;47.23;101505.31;4423126;32;20030;-75
2021/07/22 01:57:21;;;;;;;30.48;15.65;;;;;;;27.54;47.20;101509.22;4422849;32;20466;-78
2021/07/22 01:59:48;;;;;;;32.08;14.75;;;;;;;27.56;47.11;101506.59;4420264;32;20030;-79
2021/07/22 02:02:14;;;;;;;21.83;12.95;;;;;;;27.52;47.37;101506.12;4419727;32;20038;-79
2021/07/22 02:04:42;;;;;;;22.23;13.35;;;;;;;27.58;47.24;101501.84;4422068;32;20403;-78
2021/07/22 02:07:10;;;;;;;24.02;13.32;;;;;;;27.50;47.27;101500.06;4421997;32;20030;-76
2021/07/22 02:09:37;;;;;;;25.75;13.60;;;;;;;27.50;47.42;101497.19;4419937;32;20077;-76
2021/07/22 02:12:03;;;;;;;21.92;12.85;;;;;;;27.39;47.59;101495.16;4421230;32;20131;-79
2021/07/22 02:14:29;;;;;;;22.62;12.55;;;;;;;27.35;47.65;101497.56;4420714;32;20053;-77
2021/07/22 02:16:55;;;;;;;28.30;13.30;;;;;;;27.32;47.72;101495.75;4420654;32;20120;-78
2021/07/22 02:19:21;;;;;;;23.20;13.68;;;;;;;27.38;47.51;101493.63;4420141;32;20087;-80
2021/07/22 02:21:47;;;;;;;29.50;13.52;;;;;;;27.38;47.41;101496.50;4421866;32;20034;-79
2021/07/22 02:24:13;;;;;;;22.70;12.57;;;;;;;27.37;47.43;101494.94;4418786;32;20496;-76
2021/07/22 02:26:39;;;;;;;21.15;12.25;;;;;;;27.41;47.53;101491.75;4420470;32;20532;-76
2021/07/22 02:29:06;;;;;;;24.92;12.73;;;;;;;27.21;47.79;101492.91;4423031;32;20042;-79
2021/07/22 02:31:33;;;;;;;21.60;12.95;;;;;;;27.25;47.78;101484.78;4417756;32;20030;-80
2021/07/22 02:33:59;;;;;;;22.17;12.23;;;;;;;27.37;47.43;101488.38;4420414;32;20049;-78
2021/07/22 02:36:24;;;;;;;20.73;12.73;;;;;;;27.25;47.48;101484.00;4422838;32;20056;-79
2021/07/22 02:38:50;;;;;;;26.25;12.50;;;;;;;27.20;47.50;101488.47;4422626;32;20432;-79
2021/07/22 02:41:16;;;;;;;22.73;12.57;;;;;;;27.12;47.78;101482.47;4418735;32;20037;-76
2021/07/22 02:43:43;;;;;;;21.90;12.52;;;;;;;27.17;47.68;101480.87;4421750;32;20077;-79
2021/07/22 02:46:10;;;;;;;21.40;12.20;;;;;;;27.23;47.54;101478.72;4420404;32;20101;-76
2021/07/22 02:48:36;;;;;;;22.33;11.93;;;;;;;27.22;47.54;101477.94;4421465;32;20041;-78
2021/07/22 02:51:03;;;;;;;24.73;12.80;;;;;;;27.19;47.61;101486.91;4420082;32;20060;-77
2021/07/22 02:53:29;;;;;;;25.12;13.18;;;;;;;27.09;47.97;101477.78;4419696;32;20475;-76
2021/07/22 02:55:56;;;;;;;22.00;12.88;;;;;;;27.15;47.55;101477.72;4420908;32;21170;-76
2021/07/22 02:58:22;;;;;;;28.23;13.68;;;;;;;27.26;47.39;101479.78;4419163;32;20101;-77
2021/07/22 03:00:47;;;;;;;24.55;13.18;;;;;;;27.14;47.42;101473.28;4419209;32;20071;-77
2021/07/22 03:03:13;;;;;;;23.15;13.43;;;;;;;27.07;47.57;101482.53;4420600;32;20081;-77
2021/07/22 03:05:38;;;;;;;24.45;11.50;;;;;;;27.05;47.55;101473.59;4421120;32;20064;-78
2021/07/22 03:08:04;;;;;;;28.00;13.82;;;;;;;27.05;47.44;101468.63;4421174;32;20056;-78
2021/07/22 03:10:30;;;;;;;25.25;13.48;;;;;;;26.95;47.73;101469.47;4420111;32;20387;-78
2021/07/22 03:12:55;;;;;;;20.83;12.85;;;;;;;27.03;47.59;101473.38;4417395;32;20052;-76
2021/07/22 03:15:21;;;;;;;26.65;13.88;;;;;;;26.92;47.93;101479.22;4420286;32;20033;-76
2021/07/22 03:17:47;;;;;;;20.50;12.63;;;;;;;26.91;47.95;101481.31;4418958;32;20077;-76
2021/07/22 03:20:13;;;;;;;24.42;12.20;;;;;;;26.99;47.84;101479.44;4421967;32;20408;-79
2021/07/22 03:22:39;;;;;;;24.08;13.48;;;;;;;26.90;47.88;101473.16;4421157;32;20097;-79
2021/07/22 03:25:05;;;;;;;22.75;12.60;;;;;;;26.91;47.80;101475.53;4419278;32;20113;-80
2021/07/22 03:27:31;;;;;;;27.02;13.48;;;;;;;26.87;47.90;101472.16;4422953;32;20034;-78
2021/07/22 03:29:56;;;;;;;25.40;13.15;;;;;;;26.77;48.04;101473.00;4418734;32;20084;-77
2021/07/22 03:32:22;;;;;;;23.70;12.15;;;;;;;26.79;48.04;101476.16;4420264;32;20071;-76
2021/07/22 03:34:47;;;;;;;21.42;12.45;;;;;;;26.75;48.08;101476.41;4422204;32;20082;-80
2021/07/22 03:37:14;;;;;;;21.10;12.35;;;;;;;26.64;48.18;101479.38;4420175;32;20069;-77
2021/07/22 03:39:40;;;;;;;19.40;11.48;;;;;;;26.68;47.89;101479.09;4419316;32;20108;-76
2021/07/22 03:42:06;;;;;;;22.83;12.15;;;;;;;26.74;47.67;101477.75;4418080;32;20764;-79
2021/07/22 03:44:32;;;;;;;23.65;13.20;;;;;;;26.84;47.64;101475.31;4422442;32;20053;-80
2021/07/22 03:46:58;;;;;;;22.58;12.52;;;;;;;26.76;47.78;101480.09;4420033;32;20093;-76
2021/07/22 03:49:23;;;;;;;23.45;12.68;;;;;;;26.67;48.09;101480.41;4421189;32;20410;-76
2021/07/22 03:51:54;;;;;;;23.50;12.75;;;;;;;26.64;48.15;101473.63;4419537;32;20066;-76
2021/07/22 03:54:21;;;;;;;22.10;12.00;;;;;;;26.87;47.65;101477.13;4419266;32;20079;-76
2021/07/22 03:56:46;;;;;;;23.92;11.38;;;;;;;26.71;47.85;101475.13;4420880;32;20427;-79
2021/07/22 03:59:14;;;;;;;20.23;11.00;;;;;;;26.67;47.89;101477.53;4422176;32;20128;-77
2021/07/22 04:01:40;;;;;;;19.60;11.88;;;;;;;26.93;47.40;101475.78;4420566;32;20046;-79
2021/07/22 04:04:06;;;;;;;22.55;11.85;;;;;;;26.83;47.38;101476.63;4419581;32;20104;-78
2021/07/22 04:06:35;;;;;;;21.37;11.95;;;;;;;26.83;47.27;101479.53;4422606;32;20046;-77
2021/07/22 04:09:01;;;;;;;20.23;11.02;;;;;;;27.02;47.05;101471.78;4427154;32;20049;-79
2021/07/22 04:11:27;;;;;;;22.02;11.23;;;;;;;26.74;47.36;101474.06;4420671;32;20054;-76
2021/07/22 04:13:52;;;;;;;20.73;10.82;;;;;;;26.80;47.17;101469.84;4427173;32;20087;-79
2021/07/22 04:16:18;;;;;;;23.98;10.93;;;;;;;26.76;47.13;101474.31;4421353;32;20033;-80
2021/07/22 04:18:44;;;;;;;19.77;11.60;;;;;;;26.83;46.98;101467.97;4418697;32;20046;-76
2021/07/22 04:21:10;;;;;;;21.92;11.30;;;;;;;26.77;47.04;101473.00;4419591;32;20042;-78
2021/07/22 04:23:35;;;;;;;19.33;10.70;;;;;;;26.79;47.00;101471.13;4427910;32;20029;-79
2021/07/22 04:26:01;;;;;;;16.85;10.75;;;;;;;26.64;47.01;101469.94;4425907;32;20324;-78
2021/07/22 04:28:27;;;;;;;22.27;10.35;;;;;;;26.75;46.70;101478.53;4422215;32;20468;-76
2021/07/22 04:30:52;;;;;;;16.50;10.52;;;;;;;26.71;46.74;101473.03;4420790;32;20566;-77
2021/07/22 04:33:19;;;;;;;20.62;11.40;;;;;;;26.76;46.83;101472.22;4422936;32;20704;-77
2021/07/22 04:35:45;;;;;;;20.58;11.12;;;;;;;26.58;47.30;101467.06;4422943;32;20090;-79
2021/07/22 04:38:11;;;;;;;20.83;11.55;;;;;;;26.73;47.04;101472.50;4426861;32;20425;-79
2021/07/22 04:40:37;;;;;;;20.23;11.23;;;;;;;26.78;46.92;101468.78;4422831;32;20133;-78
2021/07/22 04:43:03;;;;;;;17.85;10.20;;;;;;;26.62;46.94;101472.56;4421856;32;20430;-77
2021/07/22 04:45:28;;;;;;;20.25;10.38;;;;;;;26.54;46.99;101477.31;4427005;32;20129;-79
2021/07/22 04:47:55;;;;;;;17.75;11.05;;;;;;;26.44;47.35;101473.94;4424803;32;20110;-78
2021/07/22 04:50:21;;;;;;;15.65;9.82;;;;;;;26.56;46.95;101484.13;4422075;32;20042;-78
2021/07/22 04:52:46;;;;;;;17.45;9.70;;;;;;;26.54;47.00;101480.97;4422185;32;20083;-79
2021/07/22 04:55:12;;;;;;;16.92;9.70;;;;;;;26.52;47.07;101477.03;4425998;32;20107;-78
2021/07/22 04:57:38;;;;;;;19.45;9.80;;;;;;;26.72;46.61;101473.84;4423603;32;20406;-76
2021/07/22 05:00:05;;;;;;;17.42;9.73;;;;;;;26.79;46.13;101473.25;4425215;32;20054;-76
2021/07/22 05:02:31;;;;;;;18.35;10.40;;;;;;;26.96;45.95;101465.25;4425211;32;20092;-78
2021/07/22 05:04:57;;;;;;;16.27;9.68;;;;;;;26.76;46.18;101475.13;4421278;32;20430;-77
2021/07/22 05:07:22;;;;;;;16.77;10.43;;;;;;;26.86;46.11;101473.47;4420405;32;20457;-76
2021/07/22 05:09:48;;;;;;;17.23;10.73;;;;;;;26.98;46.04;101471.28;4420599;32;20426;-79
2021/07/22 05:12:14;;;;;;;20.33;11.10;;;;;;;27.03;45.99;101474.13;4418973;32;20444;-76
2021/07/22 05:14:39;;;;;;;23.77;11.48;;;;;;;27.11;45.88;101480.91;4425057;32;20093;-76
2021/07/22 05:17:05;;;;;;;22.62;11.63;;;;;;;27.26;45.54;101480.56;4421953;32;20042;-79
2021/07/22 05:19:31;;;;;;;22.92;11.57;;;;;;;27.23;45.49;101478.72;4422740;32;20025;-76
2021/07/22 05:21:57;;;;;;;21.70;11.05;;;;;;;27.37;45.12;101486.28;4419625;32;20093;-79
2021/07/22 05:24:22;;;;;;;20.42;10.98;;;;;;;27.29;45.40;101484.47;4424360;32;20294;-78
2021/07/22 05:26:49;;;;;;;21.92;10.77;;;;;;;27.29;45.17;101478.69;4421961;32;20030;-77
2021/07/22 05:29:16;;;;;;;19.48;10.43;;;;;;;27.49;44.84;101490.63;4426121;32;20052;-79
2021/07/22 05:31:43;;;;;;;18.92;10.48;;;;;;;27.51;44.61;101487.97;4420303;32;20214;-77
2021/07/22 05:34:10;;;;;;;15.48;9.98;;;;;;;27.75;44.23;101490.91;4420373;32;20110;-77
2021/07/22 05:36:37;;;;;;;18.73;10.40;;;;;;;27.73;44.53;101493.53;4422052;32;20034;-77
2021/07/22 05:39:03;;;;;;;16.70;10.30;;;;;;;27.69;44.43;101495.16;4421445;32;20304;-78
2021/07/22 05:41:30;;;;;;;18.80;10.32;;;;;;;27.86;44.22;101490.03;4417459;32;20061;-77
2021/07/22 05:43:56;;;;;;;17.70;11.30;;;;;;;27.96;44.02;101491.25;4422529;32;20289;-76
2021/07/22 05:46:22;;;;;;;21.35;11.70;;;;;;;27.93;43.75;101486.53;4420988;32;20030;-77
2021/07/22 05:48:48;;;;;;;27.27;13.32;;;;;;;28.08;43.75;101490.59;4424147;32;20065;-78
2021/07/22 05:51:15;;;;;;;18.75;10.38;;;;;;;28.06;43.66;101499.03;4421194;32;20469;-78
2021/07/22 05:53:41;;;;;;;20.55;10.85;;;;;;;28.27;43.08;101496.41;4420641;32;20164;-77
2021/07/22 05:56:08;;;;;;;20.77;10.82;;;;;;;28.32;42.87;101496.34;4421573;32;20042;-78
2021/07/22 05:58:34;;;;;;;16.83;10.23;;;;;;;28.39;42.82;101501.53;4422069;32;20097;-78
2021/07/22 06:01:05;;;;;;;20.77;11.10;;;;;;;28.53;42.50;101499.56;4417785;32;20452;-79
2021/07/22 06:03:31;;;;;;;35.80;12.88;;;;;;;28.77;42.17;101508.16;4422034;32;20030;-77
2021/07/22 06:05:57;;;;;;;24.48;11.15;;;;;;;28.61;42.51;101497.59;4419751;32;20070;-77
2021/07/22 06:08:22;;;;;;;21.90;11.82;;;;;;;28.90;41.92;101496.69;4422884;32;20066;-79
2021/07/22 06:10:48;;;;;;;23.77;12.40;;;;;;;29.02;41.76;101495.94;4421406;32;20041;-78
2021/07/22 06:13:13;;;;;;;21.33;11.25;;;;;;;29.13;41.43;101503.72;4422251;32;20501;-79
2021/07/22 06:15:39;;;;;;;23.83;11.07;;;;;;;29.16;41.30;101493.94;4418787;32;20434;-76
2021/07/22 06:18:05;;;;;;;18.02;11.43;;;;;;;29.29;41.06;101493.97;4418604;32;20050;-79
2021/07/22 06:20:31;;;;;;;18.65;10.43;;;;;;;29.46;40.34;101500.28;4419050;32;20121;-76
2021/07/22 06:22:57;;;;;;;17.45;10.70;;;;;;;29.49;40.04;101490.50;4420323;32;20103;-77
2021/07/22 06:25:23;;;;;;;19.55;10.90;;;;;;;29.49;39.68;101499.19;4419719;32;20099;-77
2021/07/22 06:27:49;;;;;;;17.85;10.77;;;;;;;29.54;39.54;101500.44;4422569;32;20655;-79
2021/07/22 06:30:15;;;;;;;19.95;10.00;;;;;;;29.77;39.34;101501.63;4418658;32;20091;-76
2021/07/22 06:32:40;;;;;;;15.93;9.57;;;;;;;29.89;38.97;101497.19;4420186;32;20062;-80
2021/07/22 06:35:07;;;;;;;21.50;11.00;;;;;;;30.05;38.47;101499.78;4417476;32;20430;-77
2021/07/22 06:37:49;;;;;;;22.50;11.48;;;;;;;30.27;38.36;101502.25;4421506;32;20421;-81
2021/07/22 06:40:15;;;;;;;18.98;10.55;;;;;;;30.42;37.99;101508.28;4423739;32;20115;-76
2021/07/22 06:42:42;;;;;;;25.85;11.50;;;;;;;30.30;38.20;101506.16;4419746;32;20026;-78
2021/07/22 06:45:08;;;;;;;21.67;10.75;;;;;;;30.41;37.88;101506.72;4421107;32;20507;-77
2021/07/22 06:47:39;;;;;;;20.37;11.23;;;;;;;30.51;37.77;101507.84;4421156;32;20097;-78
2021/07/22 06:50:07;;;;;;;16.12;10.45;;;;;;;30.80;37.26;101508.84;4418500;32;20477;-77
2021/07/22 06:52:35;;;;;;;34.72;11.80;;;;;;;30.71;37.42;101506.34;4417864;32;20544;-80
2021/07/22 06:55:01;;;;;;;25.77;11.63;;;;;;;30.92;37.06;101509.34;4420249;32;20070;-77
2021/07/22 06:57:26;;;;;;;24.60;10.90;;;;;;;30.88;37.02;101500.97;4420624;32;20069;-77
2021/07/22 06:59:52;;;;;;;25.52;11.18;;;;;;;30.90;37.07;101507.00;4422141;32;20104;-79
2021/07/22 07:02:17;;;;;;;31.33;12.45;;;;;;;31.02;37.12;101504.63;4418992;32;20084;-78
2021/07/22 07:04:43;;;;;;;23.70;12.35;;;;;;;31.13;36.98;101505.13;4420327;32;20176;-79
2021/07/22 07:07:09;;;;;;;28.62;12.75;;;;;;;31.12;36.89;101506.47;4416196;32;20070;-79
2021/07/22 07:09:35;;;;;;;26.45;13.30;;;;;;;31.29;36.74;101503.22;4420175;32;20422;-80
2021/07/22 07:12:00;;;;;;;26.87;13.48;;;;;;;31.42;36.59;101506.06;4419442;32;20050;-78
2021/07/22 07:14:26;;;;;;;26.42;11.68;;;;;;;31.42;36.36;101506.84;4418255;32;20104;-78
2021/07/22 07:16:52;;;;;;;24.45;12.15;;;;;;;31.52;35.98;101502.09;4417347;32;20081;-77
2021/07/22 07:19:17;;;;;;;22.83;11.05;;;;;;;31.69;35.49;101499.50;4420586;32;20082;-77
2021/07/22 07:21:43;;;;;;;22.08;10.60;;;;;;;31.81;35.36;101505.84;4422624;32;20428;-78
2021/07/22 07:24:09;;;;;;;27.55;10.88;;;;;;;31.95;35.04;101502.28;4417875;32;20080;-77
2021/07/22 07:26:35;;;;;;;26.08;10.45;;;;;;;32.15;34.69;101504.34;4418882;32;20095;-76
2021/07/22 07:29:00;;;;;;;17.65;10.60;;;;;;;32.21;34.53;101507.91;4423318;32;20373;-80
2021/07/22 07:31:26;;;;;;;22.60;10.05;;;;;;;32.22;34.22;101509.47;4418160;32;20108;-76
2021/07/22 07:33:51;;;;;;;25.92;10.52;;;;;;;32.25;34.33;101502.50;4421347;32;20060;-80
2021/07/22 07:36:17;;;;;;;26.23;12.00;;;;;;;32.38;34.08;101501.63;4418167;32;20093;-77
2021/07/22 07:38:43;;;;;;;22.65;10.63;;;;;;;32.44;34.16;101499.31;4424486;32;20156;-77
2021/07/22 07:41:08;;;;;;;27.65;11.02;;;;;;;32.50;34.30;101502.84;4424005;32;20078;-79
2021/07/22 07:43:34;;;;;;;24.63;11.95;;;;;;;32.55;33.96;101507.75;4419437;32;20030;-77
2021/07/22 07:46:00;;;;;;;27.95;12.05;;;;;;;32.44;34.38;101500.12;4422764;32;20046;-78
2021/07/22 07:48:26;;;;;;;28.23;12.82;;;;;;;32.74;34.07;101504.53;4423637;32;20033;-79
2021/07/22 07:50:51;;;;;;;26.50;12.20;;;;;;;32.30;34.54;101500.75;4424933;32;20038;-77
2021/07/22 07:53:18;;;;;;;28.60;12.27;;;;;;;32.71;33.66;101502.75;4421494;32;20093;-78
2021/07/22 07:55:45;;;;;;;22.25;10.30;;;;;;;32.92;33.31;101503.47;4421956;32;20030;-78
2021/07/22 07:58:12;;;;;;;17.33;10.23;;;;;;;32.97;32.85;101508.34;4421383;32;20077;-79
2021/07/22 08:00:38;;;;;;;29.20;11.90;;;;;;;32.95;32.86;101503.09;4418945;32;20034;-79
2021/07/22 08:03:05;;;;;;;26.87;11.77;;;;;;;33.11;32.76;101504.69;4419019;32;20061;-78
2021/07/22 08:05:30;;;;;;;27.35;11.05;;;;;;;33.34;32.37;101501.84;4419728;32;20055;-80
2021/07/22 08:07:57;;;;;;;29.25;10.20;;;;;;;33.54;32.23;101509.66;4420196;32;20025;-79
2021/07/22 08:10:23;;;;;;;33.45;10.95;;;;;;;33.59;31.48;101505.78;4416742;32;20446;-81
2021/07/22 08:12:48;;;;;;;26.80;10.70;;;;;;;33.60;31.50;101507.34;4418520;32;20070;-79
2021/07/22 08:15:14;;;;;;;30.00;10.07;;;;;;;33.71;31.19;101506.97;4422834;32;20429;-81
2021/07/22 08:17:41;;;;;;;22.52;11.12;;;;;;;34.03;30.71;101498.41;4419841;32;20145;-81
2021/07/22 08:20:10;;;;;;;24.80;10.82;;;;;;;34.20;30.67;101505.19;4417141;32;20155;-80
2021/07/22 08:22:37;;;;;;;23.17;10.50;;;;;;;34.32;30.74;101499.69;4420359;32;20092;-78
2021/07/22 08:25:04;;;;;;;22.30;10.45;;;;;;;34.38;30.16;101500.31;4419943;32;20483;-81
2021/07/22 08:27:32;;;;;;;28.60;11.30;;;;;;;34.42;30.50;101506.53;4419627;32;20021;-78
2021/07/22 08:29:58;;;;;;;24.60;11.25;;;;;;;34.77;30.00;101507.56;4420680;32;20087;-82
2021/07/22 08:32:26;;;;;;;31.23;11.25;;;;;;;34.79;29.70;101505.63;4420798;32;20514;-81
2021/07/22 08:34:52;;;;;;;20.30;11.05;;;;;;;34.87;29.89;101509.31;4417756;32;20497;-80
2021/07/22 08:37:18;;;;;;;27.35;10.60;;;;;;;35.14;29.80;101510.34;4415082;32;20052;-81
2021/07/22 08:39:46;;;;;;;25.55;11.35;;;;;;;35.19;29.35;101499.78;4420350;32;20137;-81
2021/07/22 08:42:13;;;;;;;19.73;10.13;;;;;;;35.06;29.84;101505.91;4420718;32;20382;-78
2021/07/22 08:44:42;;;;;;;29.08;12.20;;;;;;;35.20;29.39;101496.25;4420765;32;20354;-79
2021/07/22 08:47:09;;;;;;;21.55;10.65;;;;;;;35.37;29.59;101493.44;4418810;32;20495;-78
2021/07/22 08:49:37;;;;;;;21.65;10.00;;;;;;;35.74;29.00;101491.59;4420457;32;20041;-80
2021/07/22 08:52:10;;;;;;;21.02;10.18;;;;;;;35.87;28.82;101495.03;4413779;32;20366;-81
2021/07/22 08:54:39;;;;;;;23.10;10.07;;;;;;;36.02;28.18;101506.59;4417403;32;20052;-81
2021/07/22 08:57:08;;;;;;;29.95;10.65;;;;;;;36.12;28.45;101497.91;4417019;32;20093;-79
2021/07/22 08:59:35;;;;;;;24.95;10.90;;;;;;;36.14;28.96;101487.13;4413704;32;20422;-80
2021/07/22 09:02:02;;;;;;;28.33;10.05;;;;;;;36.16;28.70;101495.31;4421184;32;20038;-78
2021/07/22 09:04:28;;;;;;;27.23;11.25;;;;;;;36.55;28.16;101494.34;4420063;32;20066;-78
2021/07/22 09:06:56;;;;;;;23.35;10.65;;;;;;;36.64;28.63;101487.78;4418566;32;20096;-79
2021/07/22 09:09:22;;;;;;;20.98;10.20;;;;;;;37.13;28.17;101490.47;4421179;32;20096;-80
2021/07/22 09:11:58;;;;;;;22.10;11.23;;;;;;;37.34;27.48;101492.91;4419547;32;20067;-79
2021/07/22 09:14:27;;;;;;;19.50;10.38;;;;;;;37.88;26.94;101497.31;4421882;32;20067;-79
2021/07/22 09:16:53;;;;;;;25.77;9.98;;;;;;;38.03;26.66;101488.25;4420162;32;20030;-79
2021/07/22 09:22:12;;;;;;;21.50;10.02;;;;;;;38.43;26.68;101497.28;3983060;32;15022515;-77
2021/07/22 09:24:51;;;;;;;19.25;9.55;;;;;;;38.43;26.68;101497.28;4437621;32;21236;-78
2021/07/22 09:30:19;;;;;;;17.70;10.40;;;;;;;38.57;26.66;101480.78;3983087;32;15026194;-79
2021/07/22 09:32:49;;;;;;;20.67;10.35;;;;;;;38.57;26.66;101480.78;4433760;32;20330;-77
2021/07/22 09:35:17;;;;;;;17.80;9.38;;;;;;;38.72;26.26;101489.28;4436547;32;20041;-78
2021/07/22 09:37:53;;;;;;;18.95;9.38;;;;;;;38.80;26.09;101492.81;4431973;32;20022;-77
2021/07/22 09:43:01;;;;;;;20.27;9.80;;;;;;;39.75;25.08;101487.75;3982491;32;15021683;-77
2021/07/22 09:45:30;;;;;;;16.40;9.13;;;;;;;39.78;25.07;101492.72;4440509;32;20433;-77
2021/07/22 09:48:06;;;;;;;22.08;9.82;;;;;;;39.56;25.24;101492.69;4438043;32;20406;-77
2021/07/22 09:50:39;;;;;;;18.08;9.85;;;;;;;38.61;26.07;101478.13;4439700;32;20094;-78
2021/07/22 09:53:11;;;;;;;22.07;9.57;;;;;;;38.64;26.35;101488.66;4438687;32;20069;-79
2021/07/22 09:55:39;;;;;;;23.35;10.30;;;;;;;38.49;26.73;101485.25;4438280;32;20117;-77
2021/07/22 09:58:08;;;;;;;17.35;9.15;;;;;;;38.73;26.39;101481.22;4436953;32;20076;-78
2021/07/22 10:00:37;;;;;;;16.60;9.07;;;;;;;39.32;25.73;101482.03;4438702;32;20098;-79
2021/07/22 10:03:05;;;;;;;15.85;9.10;;;;;;;39.61;25.24;101488.59;4428698;32;20477;-78
2021/07/22 10:05:38;;;;;;;19.12;9.00;;;;;;;39.91;24.85;101474.53;4432228;32;20517;-79
2021/07/22 10:08:05;;;;;;;17.62;8.57;;;;;;;40.25;24.44;101486.59;4432438;32;20030;-77
2021/07/22 10:10:32;;;;;;;17.87;8.98;;;;;;;40.58;24.09;101474.84;4431576;32;20475;-79
2021/07/22 10:13:00;;;;;;;22.48;10.00;;;;;;;40.96;23.44;101478.22;4421701;32;20078;-80
2021/07/22 10:15:29;;;;;;;13.02;8.50;;;;;;;41.42;23.02;101474.59;4420559;32;20477;-78
2021/07/22 10:17:56;;;;;;;15.93;9.02;;;;;;;41.50;22.99;101469.22;4430400;32;20093;-77
2021/07/22 10:20:33;;;;;;;17.45;8.48;;;;;;;41.52;23.10;101466.38;4430131;32;20142;-78
2021/07/22 10:23:00;;;;;;;14.18;9.10;;;;;;;41.79;22.46;101474.75;4429810;32;20477;-79
2021/07/22 10:25:27;;;;;;;14.55;9.00;;;;;;;42.02;22.10;101472.53;4431875;32;20030;-77
2021/07/22 10:27:54;;;;;;;16.27;8.85;;;;;;;42.22;21.91;101478.94;4428629;32;20427;-77
2021/07/22 10:30:22;;;;;;;16.12;8.80;;;;;;;42.07;21.89;101473.56;4428155;32;20034;-80
2021/07/22 10:32:56;;;;;;;21.75;9.85;;;;;;;42.41;21.80;101463.84;4428000;32;20041;-78
2021/07/22 10:38:30;;;;;;;15.60;8.53;;;;;;;43.17;21.00;101470.59;3953731;32;15854465;-78
2021/07/22 10:48:46;;;;;;;16.03;9.03;;;;;;;44.34;19.33;101478.63;4002979;31;15016848;-80
2021/07/22 10:51:17;;;;;;;16.92;9.80;;;;;;;44.34;19.33;101478.63;4464018;32;20108;-77
2021/07/22 10:58:58;;;;;;;15.87;10.00;;;;;;;45.74;18.20;101485.72;3998478;31;15015451;-77
2021/07/22 11:09:56;;;;;;;13.27;9.20;;;;;;;46.80;16.60;101471.84;3930527;32;15023965;-79
2021/07/22 11:15:18;;;;;;;17.12;9.10;;;;;;;46.65;17.00;101477.91;3983830;32;15024878;-78
2021/07/22 11:17:45;;;;;;;12.50;9.23;;;;;;;46.65;17.00;101477.91;4440603;32;20021;-78
2021/07/22 11:22:53;;;;;;;14.68;9.18;;;;;;;46.78;16.85;101471.78;3986674;32;15024608;-80
2021/07/22 11:25:20;;;;;;;16.15;9.52;;;;;;;46.78;16.85;101471.78;4435214;32;20391;-77
2021/07/22 11:27:47;;;;;;;13.35;9.35;;;;;;;46.15;17.10;101476.44;4435363;32;20141;-80
2021/07/22 11:30:14;;;;;;;14.43;9.55;;;;;;;46.16;17.17;101463.84;4435749;32;20066;-79
2021/07/22 11:32:40;;;;;;;13.00;8.82;;;;;;;46.09;17.21;101468.00;4434654;32;20065;-81
2021/07/22 11:35:06;;;;;;;14.05;9.25;;;;;;;45.65;17.71;101465.94;4436889;32;20085;-80
2021/07/22 11:37:33;;;;;;;19.65;9.43;;;;;;;45.04;18.22;101454.75;4438783;32;20331;-81
2021/07/22 11:40:05;;;;;;;15.95;9.82;;;;;;;44.51;18.80;101460.97;4435070;32;20090;-78
2021/07/22 11:42:31;;;;;;;18.80;9.48;;;;;;;44.47;18.57;101454.06;4432024;32;20456;-80
2021/07/22 11:45:05;;;;;;;15.63;9.35;;;;;;;44.87;18.24;101446.47;4436767;32;20359;-77